Rothschild, Wisconsin
Current Conditions -  °F | °C
As of 1:02 AM on Thursday 27 Nov 2014 (Local Time) from KAUW Reporting Station
Overcast Overcast  
Wind Chill: 10°   Ceiling: 2100
Heat Index: 19°   Visibility: 10mi
Dew Point: 14°   Wind: 7mph
Humidity: 81%   Direction: 320°NW
Pressure: 30.21"   Gusts: NA
Location:  44.89°N, 89.62°W
Report Text: KAUW 270702Z AUTO 32006KT 10SM BKN021 OVC110 M07/M10 A3021 RMK AO2 T10721100
Loading
Personal Weather Stations






























Interactive Weather Map New forecast layout! Learn more

10-Day Weather Forecast

Advertisements
Track Severe Weather on mobile